createdAt,value
2023-04-22T00:00:03.202Z,1000.13
2023-04-22T00:01:02.812Z,1000.11
2023-04-22T00:02:03.192Z,1000.11
2023-04-22T00:03:03.015Z,1000.13
2023-04-22T00:04:03.412Z,1000.09
2023-04-22T00:05:02.898Z,1000.10
2023-04-22T00:06:02.986Z,1000.07
2023-04-22T00:07:03.406Z,1000.08
2023-04-22T00:08:03.146Z,1000.05
2023-04-22T00:09:03.539Z,1000.07
2023-04-22T00:10:03.070Z,999.99
2023-04-22T00:11:03.263Z,1000.01
2023-04-22T00:12:02.698Z,999.99
2023-04-22T00:13:02.297Z,1000.00
2023-04-22T00:14:02.292Z,1000.01
2023-04-22T00:15:02.698Z,999.99
2023-04-22T00:16:02.440Z,1000.01
2023-04-22T00:17:03.445Z,1000.01
2023-04-22T00:18:02.976Z,1000.01
2023-04-22T00:19:03.441Z,999.99
2023-04-22T00:20:02.866Z,1000.00
2023-04-22T00:21:03.157Z,999.95
2023-04-22T00:22:02.524Z,999.94
2023-04-22T00:23:02.178Z,999.93
2023-04-22T00:24:02.583Z,999.91
2023-04-22T00:25:02.018Z,999.96
2023-04-22T00:26:02.440Z,999.93
2023-04-22T00:27:02.895Z,999.95
2023-04-22T00:28:02.601Z,999.91
2023-04-22T00:29:02.380Z,999.92
2023-04-22T00:30:02.743Z,999.89
2023-04-22T00:31:02.394Z,999.91
2023-04-22T00:32:03.461Z,999.89
2023-04-22T00:33:02.964Z,999.93
2023-04-22T00:34:03.411Z,999.98
2023-04-22T00:35:02.988Z,999.92
2023-04-22T00:36:03.390Z,999.98
2023-04-22T00:37:02.584Z,999.94
2023-04-22T00:38:02.317Z,999.93
2023-04-22T00:39:02.077Z,999.91
2023-04-22T00:40:02.505Z,999.93
2023-04-22T00:41:02.050Z,999.91
2023-04-22T00:42:02.782Z,999.93
2023-04-22T00:43:02.505Z,999.93
2023-04-22T00:44:02.929Z,999.92
2023-04-22T00:45:02.678Z,999.92
2023-04-22T00:46:02.993Z,999.95
2023-04-22T00:47:03.327Z,999.91
2023-04-22T00:48:03.088Z,999.96
2023-04-22T00:49:03.090Z,999.98
2023-04-22T00:50:02.763Z,999.98
2023-04-22T00:51:03.091Z,1000.03
2023-04-22T00:52:03.468Z,1000.03
2023-04-22T00:53:02.959Z,1000.04
2023-04-22T00:54:03.438Z,1000.08
2023-04-22T00:55:02.921Z,1000.06
2023-04-22T00:56:03.016Z,1000.07
2023-04-22T00:57:02.806Z,1000.04
2023-04-22T00:58:02.606Z,999.98
2023-04-22T00:59:02.976Z,1000.03
2023-04-22T01:00:02.757Z,1000.01
2023-04-22T01:01:02.587Z,1000.02
2023-04-22T01:02:02.772Z,1000.08
2023-04-22T01:03:02.746Z,1000.05
2023-04-22T01:04:02.229Z,1000.02
2023-04-22T01:05:02.700Z,1000.06
2023-04-22T01:06:02.278Z,1000.07
2023-04-22T01:07:01.814Z,1000.07
2023-04-22T01:08:01.872Z,1000.14
2023-04-22T01:09:02.205Z,1000.14
2023-04-22T01:10:01.604Z,1000.12
2023-04-22T01:11:02.011Z,1000.06
2023-04-22T01:12:02.407Z,1000.07
2023-04-22T01:13:02.708Z,1000.01
2023-04-22T01:14:02.433Z,1000.03
2023-04-22T01:15:04.693Z,1000.08
2023-04-22T01:16:02.828Z,1000.09
2023-04-22T01:17:02.058Z,1000.05
2023-04-22T01:18:02.295Z,1000.03
2023-04-22T01:19:02.046Z,1000.00
2023-04-22T01:20:01.865Z,1000.04
2023-04-22T01:21:02.291Z,1000.03
2023-04-22T01:22:02.862Z,1000.06
2023-04-22T01:23:03.198Z,1000.04
2023-04-22T01:24:02.630Z,1000.01
2023-04-22T01:25:02.980Z,1000.01
2023-04-22T01:26:02.893Z,1000.03
2023-04-22T01:27:02.343Z,1000.07
2023-04-22T01:28:02.193Z,1000.01
2023-04-22T01:29:02.648Z,999.98
2023-04-22T01:30:02.366Z,1000.00
2023-04-22T01:31:02.256Z,999.98
2023-04-22T01:32:02.535Z,999.98
2023-04-22T01:33:02.866Z,999.96
2023-04-22T01:34:02.435Z,999.96
2023-04-22T01:35:02.539Z,999.94
2023-04-22T01:36:02.968Z,999.99
2023-04-22T01:37:02.395Z,1000.00
2023-04-22T01:38:02.178Z,1000.02
2023-04-22T01:39:02.367Z,1000.01
2023-04-22T01:40:02.087Z,999.96
2023-04-22T01:41:02.580Z,999.96
2023-04-22T01:42:02.083Z,999.94
2023-04-22T01:43:01.946Z,999.92
2023-04-22T01:44:02.245Z,999.92
2023-04-22T01:45:01.976Z,999.92
2023-04-22T01:46:02.012Z,999.91
2023-04-22T01:47:02.603Z,999.94
2023-04-22T01:48:02.352Z,999.93
2023-04-22T01:49:02.265Z,999.92
2023-04-22T01:50:02.150Z,999.92
2023-04-22T01:51:02.571Z,999.96
2023-04-22T01:52:02.237Z,999.94
2023-04-22T01:53:01.936Z,999.91
2023-04-22T01:54:02.168Z,999.91
2023-04-22T01:55:01.824Z,999.90
2023-04-22T01:56:01.680Z,999.87
2023-04-22T01:57:02.215Z,999.88
2023-04-22T01:58:01.699Z,999.90
2023-04-22T01:59:01.927Z,999.85
2023-04-22T02:00:01.644Z,999.86
2023-04-22T02:01:02.275Z,999.87
2023-04-22T02:02:03.233Z,999.90
2023-04-22T02:03:03.365Z,999.82
2023-04-22T02:04:03.038Z,999.87
2023-04-22T02:05:03.473Z,999.83
2023-04-22T02:06:03.248Z,999.85
2023-04-22T02:07:03.684Z,999.85
2023-04-22T02:08:03.589Z,999.84
2023-04-22T02:09:03.331Z,999.79
2023-04-22T02:10:03.895Z,999.88
2023-04-22T02:11:03.444Z,999.89
2023-04-22T02:12:03.048Z,999.89
2023-04-22T02:13:02.843Z,999.88
2023-04-22T02:14:02.655Z,999.90
2023-04-22T02:15:03.135Z,999.87
2023-04-22T02:16:02.702Z,999.83
2023-04-22T02:17:03.246Z,999.80
2023-04-22T02:18:03.081Z,999.78
2023-04-22T02:19:02.801Z,999.76
2023-04-22T02:20:02.844Z,999.79
2023-04-22T02:21:02.982Z,999.78
2023-04-22T02:22:03.467Z,999.74
2023-04-22T02:23:03.322Z,999.73
2023-04-22T02:24:03.166Z,999.72
2023-04-22T02:25:03.632Z,999.69
2023-04-22T02:26:03.241Z,999.68
2023-04-22T02:27:03.537Z,999.71
2023-04-22T02:28:03.423Z,999.67
2023-04-22T02:29:03.979Z,999.68
2023-04-22T02:30:03.672Z,999.66
2023-04-22T02:31:03.505Z,999.65
2023-04-22T02:32:03.060Z,999.67
2023-04-22T02:33:02.899Z,999.68
2023-04-22T02:34:02.634Z,999.65
2023-04-22T02:35:03.046Z,999.64
2023-04-22T02:36:02.799Z,999.67
2023-04-22T02:37:03.245Z,999.69
2023-04-22T02:38:03.011Z,999.67
2023-04-22T02:39:02.825Z,999.68
2023-04-22T02:40:02.677Z,999.67
2023-04-22T02:41:03.104Z,999.70
2023-04-22T02:42:03.594Z,999.70
2023-04-22T02:43:03.561Z,999.69
2023-04-22T02:44:03.457Z,999.70
2023-04-22T02:45:03.316Z,999.68
2023-04-22T02:46:03.151Z,999.67
2023-04-22T02:47:03.285Z,999.66
2023-04-22T02:48:02.927Z,999.67
2023-04-22T02:49:03.050Z,999.65
2023-04-22T02:50:03.058Z,999.69
2023-04-22T02:51:02.876Z,999.66
2023-04-22T02:52:03.349Z,999.72
2023-04-22T02:53:02.888Z,999.68
2023-04-22T02:54:03.134Z,999.72
2023-04-22T02:55:02.925Z,999.67
2023-04-22T02:56:02.759Z,999.63
2023-04-22T02:57:03.799Z,999.64
2023-04-22T02:58:03.269Z,999.64
2023-04-22T02:59:03.687Z,999.66
2023-04-22T03:00:03.795Z,999.67
2023-04-22T03:01:03.847Z,999.66
2023-04-22T03:02:03.859Z,999.62
2023-04-22T03:03:03.000Z,999.60
2023-04-22T03:04:03.050Z,999.62
2023-04-22T03:05:02.615Z,999.59
2023-04-22T03:06:02.628Z,999.63
2023-04-22T03:07:02.272Z,999.58
2023-04-22T03:08:02.407Z,999.59
2023-04-22T03:09:02.600Z,999.60
2023-04-22T03:10:02.423Z,999.57
2023-04-22T03:11:02.470Z,999.56
2023-04-22T03:12:02.788Z,999.53
2023-04-22T03:13:02.592Z,999.51
2023-04-22T03:14:02.383Z,999.52
2023-04-22T03:15:02.596Z,999.49
2023-04-22T03:16:02.619Z,999.47
2023-04-22T03:17:02.657Z,999.48
2023-04-22T03:18:02.890Z,999.44
2023-04-22T03:19:02.600Z,999.51
2023-04-22T03:20:02.392Z,999.53
2023-04-22T03:21:02.263Z,999.54
2023-04-22T03:22:01.782Z,999.55
2023-04-22T03:23:02.277Z,999.52
2023-04-22T03:24:02.037Z,999.58
2023-04-22T03:25:01.895Z,999.53
2023-04-22T03:26:01.723Z,999.51
2023-04-22T03:27:02.185Z,999.53
2023-04-22T03:28:02.353Z,999.55
2023-04-22T03:29:02.684Z,999.55
2023-04-22T03:30:02.186Z,999.49
2023-04-22T03:31:02.656Z,999.51
2023-04-22T03:32:02.008Z,999.51
2023-04-22T03:33:02.488Z,999.51
2023-04-22T03:34:01.990Z,999.48
2023-04-22T03:35:01.859Z,999.49
2023-04-22T03:36:02.191Z,999.48
2023-04-22T03:37:01.918Z,999.47
2023-04-22T03:38:02.325Z,999.48
2023-04-22T03:39:01.827Z,999.47
2023-04-22T03:40:02.071Z,999.42
2023-04-22T03:41:01.873Z,999.41
2023-04-22T03:42:02.271Z,999.42
2023-04-22T03:43:02.524Z,999.42
2023-04-22T03:44:02.488Z,999.42
2023-04-22T03:45:02.789Z,999.43
2023-04-22T03:46:02.337Z,999.42
2023-04-22T03:47:02.044Z,999.41
2023-04-22T03:48:01.715Z,999.43
2023-04-22T03:49:02.176Z,999.41
2023-04-22T03:50:01.865Z,999.41
2023-04-22T03:51:02.341Z,999.39
2023-04-22T03:52:02.468Z,999.35
2023-04-22T03:53:02.486Z,999.38
2023-04-22T03:54:02.398Z,999.38
2023-04-22T03:55:02.514Z,999.38
2023-04-22T03:56:02.502Z,999.39
2023-04-22T03:57:02.061Z,999.39
2023-04-22T03:58:02.382Z,999.37
2023-04-22T03:59:01.905Z,999.36
2023-04-22T04:00:02.141Z,999.31
2023-04-22T04:01:02.195Z,999.32
2023-04-22T04:02:02.764Z,999.28
2023-04-22T04:03:02.814Z,999.28
2023-04-22T04:04:02.900Z,999.28
2023-04-22T04:05:02.882Z,999.24
2023-04-22T04:06:02.588Z,999.18
2023-04-22T04:07:03.082Z,999.22
2023-04-22T04:08:02.875Z,999.20
2023-04-22T04:09:02.798Z,999.16
2023-04-22T04:10:02.629Z,999.13
2023-04-22T04:11:03.113Z,999.12
2023-04-22T04:12:02.683Z,999.09
2023-04-22T04:13:02.721Z,999.05
2023-04-22T04:14:03.281Z,999.06
2023-04-22T04:15:02.985Z,999.07
2023-04-22T04:16:03.038Z,999.03
2023-04-22T04:17:02.583Z,999.03
2023-04-22T04:18:02.528Z,999.05
2023-04-22T04:19:02.403Z,999.08
2023-04-22T04:20:02.318Z,999.05
2023-04-22T04:21:02.175Z,999.05
2023-04-22T04:22:02.850Z,999.09
2023-04-22T04:23:02.691Z,999.08
2023-04-22T04:24:02.514Z,999.10
2023-04-22T04:25:02.839Z,999.10
2023-04-22T04:26:02.591Z,999.10
2023-04-22T04:27:03.171Z,999.07
2023-04-22T04:28:03.460Z,999.08
2023-04-22T04:29:03.372Z,999.09
2023-04-22T04:30:03.136Z,999.09
2023-04-22T04:31:03.129Z,999.07
2023-04-22T04:32:02.950Z,999.06
2023-04-22T04:33:02.919Z,999.04
2023-04-22T04:34:03.014Z,999.08
2023-04-22T04:35:02.693Z,999.04
2023-04-22T04:36:02.955Z,999.02
2023-04-22T04:37:01.939Z,999.04
2023-04-22T04:38:02.503Z,999.03
2023-04-22T04:39:02.216Z,999.03
2023-04-22T04:40:02.131Z,999.00
2023-04-22T04:41:02.051Z,999.00
2023-04-22T04:42:02.725Z,998.99
2023-04-22T04:43:02.745Z,999.00
2023-04-22T04:44:02.459Z,999.02
2023-04-22T04:45:02.515Z,999.05
2023-04-22T04:46:02.381Z,999.01
2023-04-22T04:47:03.171Z,999.05
2023-04-22T04:48:02.960Z,999.01
2023-04-22T04:49:02.617Z,998.97
2023-04-22T04:50:02.549Z,998.98
2023-04-22T04:51:03.175Z,998.97
2023-04-22T04:52:02.577Z,998.96
2023-04-22T04:53:01.975Z,998.89
2023-04-22T04:54:02.590Z,998.92
2023-04-22T04:55:01.986Z,998.93
2023-04-22T04:56:02.630Z,998.91
2023-04-22T04:57:02.909Z,998.94
2023-04-22T04:58:02.398Z,998.90
2023-04-22T04:59:02.931Z,998.93
2023-04-22T05:00:02.672Z,998.94
2023-04-22T05:01:02.896Z,998.93
2023-04-22T05:02:02.773Z,998.97
2023-04-22T05:03:02.620Z,998.98
2023-04-22T05:04:02.714Z,999.01
2023-04-22T05:05:02.473Z,998.97
2023-04-22T05:06:02.526Z,998.98
2023-04-22T05:07:03.081Z,999.01
2023-04-22T05:08:03.002Z,999.09
2023-04-22T05:09:02.910Z,999.09
2023-04-22T05:10:02.782Z,999.09
2023-04-22T05:11:02.960Z,999.09
2023-04-22T05:12:03.466Z,999.12
2023-04-22T05:13:04.267Z,999.11
2023-04-22T05:14:03.009Z,999.07
2023-04-22T05:15:02.935Z,999.09
2023-04-22T05:16:03.546Z,999.09
2023-04-22T05:17:02.989Z,999.09
2023-04-22T05:18:02.502Z,999.15
2023-04-22T05:19:02.467Z,999.16
2023-04-22T05:20:02.394Z,999.12
2023-04-22T05:21:02.990Z,999.16
2023-04-22T05:22:02.024Z,999.19
2023-04-22T05:23:02.305Z,999.17
2023-04-22T05:24:02.254Z,999.16
2023-04-22T05:25:02.298Z,999.15
2023-04-22T05:26:02.263Z,999.17
2023-04-22T05:27:02.137Z,999.15
2023-04-22T05:28:02.744Z,999.17
2023-04-22T05:29:02.489Z,999.16
2023-04-22T05:30:02.404Z,999.19
2023-04-22T05:31:02.249Z,999.17
2023-04-22T05:32:02.284Z,999.16
2023-04-22T05:33:02.393Z,999.17
2023-04-22T05:34:02.202Z,999.15
2023-04-22T05:35:02.710Z,999.13
2023-04-22T05:36:02.350Z,999.16
2023-04-22T05:37:02.227Z,999.15
2023-04-22T05:38:02.387Z,999.07
2023-04-22T05:39:02.386Z,999.08
2023-04-22T05:40:02.188Z,999.09
2023-04-22T05:41:02.184Z,999.07
2023-04-22T05:42:02.855Z,999.03
2023-04-22T05:43:02.800Z,999.03
2023-04-22T05:44:03.056Z,999.06
2023-04-22T05:45:02.960Z,999.09
2023-04-22T05:46:03.012Z,999.11
2023-04-22T05:47:02.252Z,999.12
2023-04-22T05:48:02.198Z,999.11
2023-04-22T05:49:02.134Z,999.13
2023-04-22T05:50:01.973Z,999.12
2023-04-22T05:51:02.576Z,999.09
2023-04-22T05:52:02.391Z,999.07
2023-04-22T05:53:02.511Z,999.07
2023-04-22T05:54:02.424Z,999.08
2023-04-22T05:55:02.575Z,999.04
2023-04-22T05:56:02.516Z,999.02
2023-04-22T05:57:02.454Z,999.06
2023-04-22T05:58:02.950Z,999.07
2023-04-22T05:59:02.705Z,999.09
2023-04-22T06:00:02.723Z,999.11
2023-04-22T06:01:02.687Z,999.09
2023-04-22T06:02:01.786Z,999.08
2023-04-22T06:03:01.951Z,999.09
2023-04-22T06:04:01.847Z,999.15
2023-04-22T06:05:02.267Z,999.14
2023-04-22T06:06:02.359Z,999.13
2023-04-22T06:07:02.006Z,999.08
2023-04-22T06:08:01.848Z,999.10
2023-04-22T06:09:02.395Z,999.10
2023-04-22T06:10:04.600Z,998.99
2023-04-22T06:11:02.245Z,998.99
2023-04-22T06:12:02.260Z,999.01
2023-04-22T06:13:02.644Z,999.00
2023-04-22T06:14:02.313Z,998.97
2023-04-22T06:15:02.181Z,998.97
2023-04-22T06:16:02.633Z,998.95
2023-04-22T06:17:02.574Z,998.93
2023-04-22T06:18:02.586Z,998.90
2023-04-22T06:19:02.593Z,998.88
2023-04-22T06:20:02.367Z,998.93
2023-04-22T06:21:02.279Z,998.90
2023-04-22T06:22:02.006Z,998.95
2023-04-22T06:23:02.035Z,998.89
2023-04-22T06:24:02.430Z,998.82
2023-04-22T06:25:02.245Z,998.83
2023-04-22T06:26:02.058Z,998.81
2023-04-22T06:27:01.984Z,998.81
2023-04-22T06:28:01.994Z,998.82
2023-04-22T06:29:02.061Z,998.79
2023-04-22T06:30:01.973Z,998.79
2023-04-22T06:31:02.001Z,998.81
2023-04-22T06:32:02.616Z,998.80
2023-04-22T06:33:02.565Z,998.80
2023-04-22T06:34:02.434Z,998.77
2023-04-22T06:35:03.027Z,998.79
2023-04-22T06:36:02.726Z,998.78
2023-04-22T06:37:02.664Z,998.78
2023-04-22T06:38:02.902Z,998.78
2023-04-22T06:39:02.773Z,998.81
2023-04-22T06:40:02.623Z,998.81
2023-04-22T06:41:02.786Z,998.84
2023-04-22T06:42:01.899Z,998.87
2023-04-22T06:43:01.759Z,998.86
2023-04-22T06:44:01.505Z,998.84
2023-04-22T06:45:02.102Z,998.85
2023-04-22T06:46:01.854Z,998.91
2023-04-22T06:47:02.404Z,998.91
2023-04-22T06:48:02.676Z,998.91
2023-04-22T06:49:02.816Z,998.96
2023-04-22T06:50:02.537Z,998.98
2023-04-22T06:51:02.816Z,998.94
2023-04-22T06:52:01.955Z,998.92
2023-04-22T06:53:01.916Z,998.92
2023-04-22T06:54:01.849Z,998.93
2023-04-22T06:55:01.800Z,998.93
2023-04-22T06:56:01.778Z,998.91
2023-04-22T06:57:02.403Z,998.91
2023-04-22T06:58:02.379Z,998.93
2023-04-22T06:59:02.548Z,998.91
2023-04-22T07:00:02.564Z,998.86
2023-04-22T07:01:02.350Z,998.90
2023-04-22T07:02:03.108Z,998.94
2023-04-22T07:03:03.200Z,998.95
2023-04-22T07:04:03.138Z,998.88
2023-04-22T07:05:03.203Z,998.90
2023-04-22T07:06:03.024Z,998.89
2023-04-22T07:07:03.556Z,998.88
2023-04-22T07:08:03.942Z,998.90
2023-04-22T07:09:03.596Z,998.90
2023-04-22T07:10:03.401Z,998.89
2023-04-22T07:11:03.932Z,998.86
2023-04-22T07:12:03.244Z,998.91
2023-04-22T07:13:02.948Z,998.90
2023-04-22T07:14:03.556Z,998.92
2023-04-22T07:15:03.028Z,998.93
2023-04-22T07:16:03.357Z,998.94
2023-04-22T07:17:03.305Z,998.87
2023-04-22T07:18:03.141Z,998.88
2023-04-22T07:19:03.232Z,998.83
2023-04-22T07:20:03.182Z,998.79
2023-04-22T07:21:03.182Z,998.76
2023-04-22T07:22:03.704Z,998.80
2023-04-22T07:23:03.604Z,998.80
2023-04-22T07:24:03.578Z,998.75
2023-04-22T07:25:03.638Z,998.72
2023-04-22T07:26:03.632Z,998.73
2023-04-22T07:27:03.066Z,998.72
2023-04-22T07:28:03.037Z,998.71
2023-04-22T07:29:03.051Z,998.71
2023-04-22T07:30:03.223Z,998.69
2023-04-22T07:31:02.613Z,998.71
2023-04-22T07:32:03.024Z,998.74
2023-04-22T07:33:03.134Z,998.66
2023-04-22T07:34:03.048Z,998.69
2023-04-22T07:35:03.119Z,998.67
2023-04-22T07:36:03.037Z,998.69
2023-04-22T07:37:03.700Z,998.64
2023-04-22T07:38:03.318Z,998.59
2023-04-22T07:39:03.395Z,998.59
2023-04-22T07:40:03.650Z,998.57
2023-04-22T07:41:03.593Z,998.54
2023-04-22T07:42:03.306Z,998.58
2023-04-22T07:43:03.351Z,998.53
2023-04-22T07:44:03.198Z,998.51
2023-04-22T07:45:03.059Z,998.55
2023-04-22T07:46:03.142Z,998.50
2023-04-22T07:47:03.439Z,998.53
2023-04-22T07:48:03.517Z,998.51
2023-04-22T07:49:03.344Z,998.47
2023-04-22T07:50:03.357Z,998.50
2023-04-22T07:51:03.167Z,998.49
2023-04-22T07:52:03.005Z,998.51
2023-04-22T07:53:02.788Z,998.51
2023-04-22T07:54:03.057Z,998.45
2023-04-22T07:55:02.878Z,998.45
2023-04-22T07:56:02.943Z,998.45
2023-04-22T07:57:03.055Z,998.36
2023-04-22T07:58:02.833Z,998.35
2023-04-22T07:59:02.929Z,998.36
2023-04-22T08:00:02.871Z,998.26
2023-04-22T08:01:02.873Z,998.42
2023-04-22T08:02:02.391Z,998.29
2023-04-22T08:03:02.417Z,998.30
2023-04-22T08:04:02.431Z,998.32
2023-04-22T08:05:02.054Z,998.32
2023-04-22T08:06:02.244Z,998.30
2023-04-22T08:07:09.259Z,998.25
2023-04-22T08:08:02.186Z,998.31
2023-04-22T08:09:02.237Z,998.28
2023-04-22T08:10:02.284Z,998.30
2023-04-22T08:11:02.341Z,998.28
2023-04-22T08:12:02.962Z,998.33
2023-04-22T08:13:02.797Z,998.30
2023-04-22T08:14:02.716Z,998.23
2023-04-22T08:15:02.615Z,998.23
2023-04-22T08:16:02.667Z,998.24
2023-04-22T08:17:03.030Z,998.18
2023-04-22T08:18:03.154Z,998.24
2023-04-22T08:19:03.056Z,998.18
2023-04-22T08:20:02.635Z,998.17
2023-04-22T08:21:02.671Z,998.16
2023-04-22T08:22:01.805Z,998.15
2023-04-22T08:23:02.480Z,998.14
2023-04-22T08:24:02.299Z,998.18
2023-04-22T08:25:02.159Z,998.20
2023-04-22T08:26:02.265Z,998.21
2023-04-22T08:27:02.760Z,998.16
2023-04-22T08:28:02.404Z,998.17
2023-04-22T08:29:02.469Z,998.22
2023-04-22T08:30:02.456Z,998.25
2023-04-22T08:31:02.490Z,998.06
2023-04-22T08:32:02.578Z,998.20
2023-04-22T08:33:02.795Z,998.13
2023-04-22T08:34:02.760Z,998.21
2023-04-22T08:35:05.668Z,998.22
2023-04-22T08:36:02.863Z,998.16
2023-04-22T08:37:02.083Z,998.10
2023-04-22T08:38:02.486Z,998.16
2023-04-22T08:39:02.091Z,998.17
2023-04-22T08:40:02.070Z,998.17
2023-04-22T08:41:02.203Z,998.20
2023-04-22T08:42:02.188Z,998.19
2023-04-22T08:43:02.333Z,998.09
2023-04-22T08:44:02.782Z,998.10
2023-04-22T08:45:02.575Z,998.15
2023-04-22T08:46:02.794Z,998.17
2023-04-22T08:47:03.036Z,998.19
2023-04-22T08:48:02.886Z,998.11
2023-04-22T08:49:02.734Z,998.08
2023-04-22T08:50:02.704Z,998.11
2023-04-22T08:51:02.899Z,998.06
2023-04-22T08:52:02.156Z,998.04
2023-04-22T08:53:02.030Z,998.05
2023-04-22T08:54:02.736Z,998.08
2023-04-22T08:55:02.485Z,998.05
2023-04-22T08:56:02.511Z,998.07
2023-04-22T08:57:02.563Z,998.02
2023-04-22T08:58:02.942Z,998.01
2023-04-22T08:59:02.992Z,997.99
2023-04-22T09:00:02.799Z,998.02
2023-04-22T09:01:02.980Z,998.03
2023-04-22T09:02:02.210Z,998.05
2023-04-22T09:03:02.265Z,998.01
2023-04-22T09:04:02.192Z,998.06
2023-04-22T09:05:02.023Z,998.12
2023-04-22T09:06:02.081Z,998.05
2023-04-22T09:07:01.897Z,998.03
2023-04-22T09:08:01.880Z,997.98
2023-04-22T09:09:01.955Z,998.01
2023-04-22T09:10:01.879Z,997.99
2023-04-22T09:11:02.254Z,997.92
2023-04-22T09:12:02.068Z,998.04
2023-04-22T09:13:01.978Z,997.94
2023-04-22T09:14:02.065Z,997.89
2023-04-22T09:15:02.131Z,997.86
2023-04-22T09:16:02.260Z,997.85
2023-04-22T09:17:02.259Z,997.80
2023-04-22T09:18:02.303Z,997.86
2023-04-22T09:19:02.423Z,997.81
2023-04-22T09:20:02.310Z,997.83
2023-04-22T09:21:02.281Z,997.83
2023-04-22T09:22:02.278Z,997.79
2023-04-22T09:23:02.683Z,997.78
2023-04-22T09:24:02.483Z,997.81
2023-04-22T09:25:02.436Z,997.83
2023-04-22T09:26:02.540Z,997.86
2023-04-22T09:27:02.645Z,997.86
2023-04-22T09:28:02.766Z,997.76
2023-04-22T09:29:02.597Z,997.76
2023-04-22T09:30:02.645Z,997.84
2023-04-22T09:31:02.720Z,997.77
2023-04-22T09:32:02.178Z,997.81
2023-04-22T09:33:02.550Z,997.79
2023-04-22T09:34:02.367Z,997.77
2023-04-22T09:35:02.476Z,997.75
2023-04-22T09:36:02.358Z,997.83
2023-04-22T09:37:02.326Z,997.80
2023-04-22T09:38:02.442Z,997.76
2023-04-22T09:39:02.508Z,997.85
2023-04-22T09:40:02.505Z,997.75
2023-04-22T09:41:02.136Z,997.73
2023-04-22T09:42:02.775Z,997.77
2023-04-22T09:43:02.857Z,997.78
2023-04-22T09:44:03.003Z,997.74
2023-04-22T09:45:02.597Z,997.78
2023-04-22T09:46:02.726Z,997.80
2023-04-22T09:47:02.356Z,997.86
2023-04-22T09:48:02.448Z,997.78
2023-04-22T09:49:02.410Z,997.82
2023-04-22T09:50:02.453Z,997.78
2023-04-22T09:51:02.387Z,997.80
2023-04-22T09:52:02.969Z,997.83
2023-04-22T09:53:02.906Z,997.80
2023-04-22T09:54:03.030Z,997.80
2023-04-22T09:55:03.181Z,997.83
2023-04-22T09:56:03.192Z,997.83
2023-04-22T09:57:02.298Z,997.81
2023-04-22T09:58:02.245Z,997.78
2023-04-22T09:59:02.309Z,997.76
2023-04-22T10:00:02.408Z,997.80
2023-04-22T10:01:02.293Z,997.76
2023-04-22T10:02:02.629Z,997.70
2023-04-22T10:03:02.775Z,997.74
2023-04-22T10:04:02.535Z,997.69
2023-04-22T10:05:02.714Z,997.71
2023-04-22T10:06:02.801Z,997.72
2023-04-22T10:07:02.964Z,997.68
2023-04-22T10:08:03.033Z,997.65
2023-04-22T10:09:02.896Z,997.63
2023-04-22T10:10:03.023Z,997.67
2023-04-22T10:11:02.981Z,997.68
2023-04-22T10:12:02.970Z,997.65
2023-04-22T10:13:03.056Z,997.64
2023-04-22T10:14:03.236Z,997.76
2023-04-22T10:15:03.112Z,997.72
2023-04-22T10:16:03.198Z,997.71
2023-04-22T10:17:03.094Z,997.71
2023-04-22T10:18:03.124Z,997.76
2023-04-22T10:19:02.774Z,997.76
2023-04-22T10:20:02.893Z,997.83
2023-04-22T10:21:02.818Z,997.81
2023-04-22T10:22:02.730Z,997.77
2023-04-22T10:23:02.742Z,997.86
2023-04-22T10:24:02.454Z,997.76
2023-04-22T10:25:02.849Z,997.76
2023-04-22T10:26:02.705Z,997.77
2023-04-22T10:27:02.939Z,997.80
2023-04-22T10:28:02.921Z,997.83
2023-04-22T10:29:02.994Z,997.80
2023-04-22T10:30:03.115Z,997.78
2023-04-22T10:31:02.997Z,997.75
2023-04-22T10:32:03.173Z,997.75
2023-04-22T10:33:03.361Z,997.80
2023-04-22T10:34:02.770Z,997.77
2023-04-22T10:35:03.138Z,997.73
2023-04-22T10:36:03.184Z,997.76
2023-04-22T10:37:03.562Z,997.78
2023-04-22T10:38:03.659Z,997.72
2023-04-22T10:39:03.800Z,997.74
2023-04-22T10:40:03.647Z,997.78
2023-04-22T10:41:03.949Z,997.79
2023-04-22T10:42:03.580Z,997.87
2023-04-22T10:43:03.710Z,997.81
2023-04-22T10:44:03.496Z,997.82
2023-04-22T10:45:03.835Z,997.81
2023-04-22T10:46:03.866Z,997.83
2023-04-22T10:47:02.935Z,997.85
2023-04-22T10:48:02.574Z,997.85
2023-04-22T10:49:02.593Z,997.81
2023-04-22T10:50:02.669Z,997.94
2023-04-22T10:51:02.803Z,997.84
2023-04-22T10:52:03.206Z,997.88
2023-04-22T10:53:03.136Z,997.90
2023-04-22T10:54:02.897Z,997.95
2023-04-22T10:55:03.014Z,997.91
2023-04-22T10:56:03.138Z,997.93
2023-04-22T10:57:02.946Z,997.97
2023-04-22T10:58:02.725Z,997.90
2023-04-22T10:59:02.721Z,997.95
2023-04-22T11:00:02.973Z,997.92
2023-04-22T11:01:02.893Z,997.92
2023-04-22T11:02:02.681Z,997.97
2023-04-22T11:03:02.594Z,997.96
2023-04-22T11:04:02.554Z,997.96
2023-04-22T11:05:02.462Z,997.94
2023-04-22T11:06:02.409Z,997.91
2023-04-22T11:07:03.126Z,997.95
2023-04-22T11:08:02.967Z,997.97
2023-04-22T11:09:02.913Z,997.97
2023-04-22T11:10:02.662Z,997.96
2023-04-22T11:11:02.620Z,997.95
2023-04-22T11:12:03.139Z,997.90
2023-04-22T11:13:02.985Z,997.89
2023-04-22T11:14:02.791Z,997.90
2023-04-22T11:15:03.183Z,997.90
2023-04-22T11:16:02.860Z,997.83
2023-04-22T11:17:03.349Z,997.92
2023-04-22T11:18:03.244Z,997.92
2023-04-22T11:19:03.030Z,997.92
2023-04-22T11:20:03.251Z,997.92
2023-04-22T11:21:03.450Z,997.93
2023-04-22T11:22:02.877Z,997.96
2023-04-22T11:23:02.897Z,997.85
2023-04-22T11:24:02.625Z,997.89
2023-04-22T11:25:02.531Z,997.95
2023-04-22T11:26:02.717Z,997.99
2023-04-22T11:27:03.370Z,998.02
2023-04-22T11:28:03.261Z,997.99
2023-04-22T11:29:02.772Z,998.00
2023-04-22T11:30:02.953Z,998.01
2023-04-22T11:31:03.448Z,998.01
2023-04-22T11:32:03.475Z,998.00
2023-04-22T11:33:03.602Z,997.97
2023-04-22T11:34:03.321Z,998.00
2023-04-22T11:35:03.418Z,998.00
2023-04-22T11:36:03.136Z,997.97
2023-04-22T11:37:02.406Z,998.02
2023-04-22T11:38:02.895Z,997.98
2023-04-22T11:39:02.840Z,998.05
2023-04-22T11:40:27.371Z,998.04
2023-04-22T11:41:02.455Z,998.01
2023-04-22T11:42:02.530Z,998.02
2023-04-22T11:43:02.724Z,997.99
2023-04-22T11:44:03.114Z,997.94
2023-04-22T11:45:03.035Z,998.03
2023-04-22T11:46:03.278Z,998.06
2023-04-22T11:47:02.655Z,998.01
2023-04-22T11:48:02.846Z,998.00
2023-04-22T11:49:02.974Z,998.06
2023-04-22T11:50:03.201Z,998.06
2023-04-22T11:51:02.865Z,998.09
2023-04-22T11:52:02.951Z,998.04
2023-04-22T11:53:02.112Z,998.05
2023-04-22T11:54:02.143Z,998.04
2023-04-22T11:55:02.188Z,998.06
2023-04-22T11:56:02.491Z,998.02
2023-04-22T11:57:02.082Z,998.04
2023-04-22T11:58:02.269Z,998.03
2023-04-22T11:59:02.446Z,998.04
2023-04-22T12:00:02.362Z,998.03
2023-04-22T12:01:02.624Z,998.00
2023-04-22T12:02:02.722Z,998.01
2023-04-22T12:03:03.128Z,997.98
2023-04-22T12:04:03.618Z,997.97
2023-04-22T12:05:03.544Z,997.97
2023-04-22T12:06:02.859Z,997.96
2023-04-22T12:07:03.229Z,997.91
2023-04-22T12:08:02.823Z,997.95
2023-04-22T12:09:02.936Z,997.99
2023-04-22T12:10:03.033Z,997.96
2023-04-22T12:11:02.450Z,997.94
2023-04-22T12:12:02.571Z,997.93
2023-04-22T12:13:03.413Z,997.90
2023-04-22T12:14:03.450Z,997.89
2023-04-22T12:15:03.472Z,997.94
2023-04-22T12:16:03.425Z,997.92
2023-04-22T12:17:03.419Z,997.96
2023-04-22T12:18:03.624Z,997.92
2023-04-22T12:19:03.682Z,997.96
2023-04-22T12:20:03.403Z,997.94
2023-04-22T12:21:03.588Z,997.86
2023-04-22T12:22:03.318Z,997.92
2023-04-22T12:23:02.816Z,997.88
2023-04-22T12:24:02.805Z,997.88
2023-04-22T12:25:02.787Z,997.89
2023-04-22T12:26:03.040Z,997.87